sensor_id;sensor_type;location;lat;lon;timestamp;pressure;altitude;pressure_sealevel;temperature;humidity
44457;BME280;30159;49.316;8.558;2022-11-04T00:01:21;99386.22;;;11.69;100.00
44457;BME280;30159;49.316;8.558;2022-11-04T00:03:48;99260.03;;;10.81;100.00
44457;BME280;30159;49.316;8.558;2022-11-04T00:06:14;99393.09;;;11.75;100.00
44457;BME280;30159;49.316;8.558;2022-11-04T00:08:47;99401.78;;;11.72;100.00
44457;BME280;30159;49.316;8.558;2022-11-04T00:11:13;99395.78;;;11.75;100.00
44457;BME280;30159;49.316;8.558;2022-11-04T00:13:57;99384.97;;;11.75;100.00
44457;BME280;30159;49.316;8.558;2022-11-04T00:16:24;99371.69;;;11.87;100.00
44457;BME280;30159;49.316;8.558;2022-11-04T00:19:08;99379.91;;;11.82;100.00
44457;BME280;30159;49.316;8.558;2022-11-04T00:21:34;99377.69;;;11.84;100.00
44457;BME280;30159;49.316;8.558;2022-11-04T00:24:19;99380.06;;;11.86;100.00
44457;BME280;30159;49.316;8.558;2022-11-04T00:27:09;99387.53;;;11.80;100.00
44457;BME280;30159;49.316;8.558;2022-11-04T00:29:53;99392.59;;;11.81;100.00
44457;BME280;30159;49.316;8.558;2022-11-04T00:32:20;99398.34;;;11.80;100.00
44457;BME280;30159;49.316;8.558;2022-11-04T00:35:05;99407.88;;;11.86;100.00
44457;BME280;30159;49.316;8.558;2022-11-04T00:37:31;99401.91;;;11.89;100.00
44457;BME280;30159;49.316;8.558;2022-11-04T00:40:02;99380.97;;;11.72;100.00
44457;BME280;30159;49.316;8.558;2022-11-04T00:42:29;99376.97;;;11.61;100.00
44457;BME280;30159;49.316;8.558;2022-11-04T00:44:56;99433.13;;;11.81;100.00
44457;BME280;30159;49.316;8.558;2022-11-04T00:47:22;99439.13;;;11.70;100.00
44457;BME280;30159;49.316;8.558;2022-11-04T00:49:49;99452.13;;;11.68;100.00
44457;BME280;30159;49.316;8.558;2022-11-04T00:52:16;99450.09;;;11.73;100.00
44457;BME280;30159;49.316;8.558;2022-11-04T00:54:42;99440.03;;;11.56;100.00
44457;BME280;30159;49.316;8.558;2022-11-04T00:57:10;99366.06;;;11.12;100.00
44457;BME280;30159;49.316;8.558;2022-11-04T00:59:37;99444.84;;;11.68;100.00
44457;BME280;30159;49.316;8.558;2022-11-04T01:02:04;99441.38;;;11.76;100.00
44457;BME280;30159;49.316;8.558;2022-11-04T01:04:31;99436.97;;;11.80;100.00
44457;BME280;30159;49.316;8.558;2022-11-04T01:06:58;99446.34;;;11.83;100.00
44457;BME280;30159;49.316;8.558;2022-11-04T01:09:24;99441.94;;;11.87;100.00
44457;BME280;30159;49.316;8.558;2022-11-04T01:11:51;99442.16;;;11.77;100.00
44457;BME280;30159;49.316;8.558;2022-11-04T01:14:19;99427.47;;;11.60;100.00
44457;BME280;30159;49.316;8.558;2022-11-04T01:16:48;99445.00;;;11.72;100.00
44457;BME280;30159;49.316;8.558;2022-11-04T01:19:15;99438.63;;;11.68;100.00
44457;BME280;30159;49.316;8.558;2022-11-04T01:21:42;99452.47;;;11.66;100.00
44457;BME280;30159;49.316;8.558;2022-11-04T01:24:08;99451.41;;;11.76;100.00
44457;BME280;30159;49.316;8.558;2022-11-04T01:26:35;99443.44;;;11.71;100.00
44457;BME280;30159;49.316;8.558;2022-11-04T01:29:02;99446.28;;;11.66;100.00
44457;BME280;30159;49.316;8.558;2022-11-04T01:31:30;99447.22;;;11.70;100.00
44457;BME280;30159;49.316;8.558;2022-11-04T01:33:57;99454.72;;;11.73;100.00
44457;BME280;30159;49.316;8.558;2022-11-04T01:36:24;99414.69;;;11.44;100.00
44457;BME280;30159;49.316;8.558;2022-11-04T01:38:53;99440.38;;;11.64;100.00
44457;BME280;30159;49.316;8.558;2022-11-04T01:41:22;99444.66;;;11.65;100.00
44457;BME280;30159;49.316;8.558;2022-11-04T01:43:50;99449.69;;;11.57;100.00
44457;BME280;30159;49.316;8.558;2022-11-04T01:46:25;99449.34;;;11.50;100.00
44457;BME280;30159;49.316;8.558;2022-11-04T01:48:58;99439.81;;;11.53;100.00
44457;BME280;30159;49.316;8.558;2022-11-04T01:51:28;99433.63;;;11.52;100.00
44457;BME280;30159;49.316;8.558;2022-11-04T01:53:57;99436.34;;;11.52;100.00
44457;BME280;30159;49.316;8.558;2022-11-04T01:56:25;99445.09;;;11.58;100.00
44457;BME280;30159;49.316;8.558;2022-11-04T01:58:54;99439.16;;;11.47;100.00
44457;BME280;30159;49.316;8.558;2022-11-04T02:01:23;99398.97;;;11.23;100.00
44457;BME280;30159;49.316;8.558;2022-11-04T02:03:52;99436.22;;;11.35;100.00
44457;BME280;30159;49.316;8.558;2022-11-04T02:06:21;99441.44;;;11.31;100.00
44457;BME280;30159;49.316;8.558;2022-11-04T02:08:48;99443.47;;;11.26;100.00
44457;BME280;30159;49.316;8.558;2022-11-04T02:11:15;99445.31;;;11.16;100.00
44457;BME280;30159;49.316;8.558;2022-11-04T02:13:55;99447.94;;;11.08;100.00
44457;BME280;30159;49.316;8.558;2022-11-04T02:16:29;99448.97;;;11.21;100.00
44457;BME280;30159;49.316;8.558;2022-11-04T02:19:07;99413.41;;;10.96;100.00
44457;BME280;30159;49.316;8.558;2022-11-04T02:22:02;99449.47;;;11.23;100.00
44457;BME280;30159;49.316;8.558;2022-11-04T02:24:48;99455.06;;;11.26;100.00
44457;BME280;30159;49.316;8.558;2022-11-04T02:27:34;99394.25;;;10.84;100.00
44457;BME280;30159;49.316;8.558;2022-11-04T02:30:07;99452.81;;;11.20;100.00
44457;BME280;30159;49.316;8.558;2022-11-04T02:32:41;99455.25;;;11.30;100.00
44457;BME280;30159;49.316;8.558;2022-11-04T02:35:19;99451.88;;;11.24;100.00
44457;BME280;30159;49.316;8.558;2022-11-04T02:37:54;99452.69;;;11.25;100.00
44457;BME280;30159;49.316;8.558;2022-11-04T02:40:28;99456.03;;;11.30;100.00
44457;BME280;30159;49.316;8.558;2022-11-04T02:43:00;99463.19;;;11.26;100.00
44457;BME280;30159;49.316;8.558;2022-11-04T02:45:35;99469.25;;;11.32;100.00
44457;BME280;30159;49.316;8.558;2022-11-04T02:48:07;99460.22;;;11.36;100.00
44457;BME280;30159;49.316;8.558;2022-11-04T02:50:40;99460.22;;;11.36;100.00
44457;BME280;30159;49.316;8.558;2022-11-04T02:53:13;99472.84;;;11.27;100.00
44457;BME280;30159;49.316;8.558;2022-11-04T02:55:44;99490.34;;;11.30;100.00
44457;BME280;30159;49.316;8.558;2022-11-04T02:58:14;99463.56;;;10.97;100.00
44457;BME280;30159;49.316;8.558;2022-11-04T03:00:43;99475.47;;;11.18;100.00
44457;BME280;30159;49.316;8.558;2022-11-04T03:03:14;99469.13;;;11.14;100.00
44457;BME280;30159;49.316;8.558;2022-11-04T03:05:44;99477.03;;;11.11;100.00
44457;BME280;30159;49.316;8.558;2022-11-04T03:08:15;99475.22;;;11.06;100.00
44457;BME280;30159;49.316;8.558;2022-11-04T03:10:47;99468.84;;;11.02;100.00
44457;BME280;30159;49.316;8.558;2022-11-04T03:13:19;99490.56;;;10.97;100.00
44457;BME280;30159;49.316;8.558;2022-11-04T03:15:51;99493.38;;;10.92;100.00
44457;BME280;30159;49.316;8.558;2022-11-04T03:18:23;99476.19;;;10.88;100.00
44457;BME280;30159;49.316;8.558;2022-11-04T03:20:57;99488.75;;;10.92;100.00
44457;BME280;30159;49.316;8.558;2022-11-04T03:23:27;99492.25;;;10.93;100.00
44457;BME280;30159;49.316;8.558;2022-11-04T03:25:57;99501.97;;;10.94;100.00
44457;BME280;30159;49.316;8.558;2022-11-04T03:28:34;99506.84;;;10.92;100.00
44457;BME280;30159;49.316;8.558;2022-11-04T03:31:05;99486.19;;;10.87;100.00
44457;BME280;30159;49.316;8.558;2022-11-04T03:33:39;99488.59;;;10.89;100.00
44457;BME280;30159;49.316;8.558;2022-11-04T03:36:07;99490.00;;;10.86;100.00
44457;BME280;30159;49.316;8.558;2022-11-04T03:38:34;99484.41;;;10.83;100.00
44457;BME280;30159;49.316;8.558;2022-11-04T03:41:05;99504.16;;;10.92;100.00
44457;BME280;30159;49.316;8.558;2022-11-04T03:43:34;99512.88;;;10.89;100.00
44457;BME280;30159;49.316;8.558;2022-11-04T03:46:02;99502.88;;;10.89;100.00
44457;BME280;30159;49.316;8.558;2022-11-04T03:48:30;99494.78;;;10.89;100.00
44457;BME280;30159;49.316;8.558;2022-11-04T03:50:57;99492.69;;;10.86;100.00
44457;BME280;30159;49.316;8.558;2022-11-04T03:53:26;99499.38;;;10.89;100.00
44457;BME280;30159;49.316;8.558;2022-11-04T03:56:04;99497.78;;;10.88;100.00
44457;BME280;30159;49.316;8.558;2022-11-04T03:58:43;99509.78;;;10.82;100.00
44457;BME280;30159;49.316;8.558;2022-11-04T04:01:23;99507.91;;;10.68;100.00
44457;BME280;30159;49.316;8.558;2022-11-04T04:03:58;99505.22;;;10.68;100.00
44457;BME280;30159;49.316;8.558;2022-11-04T04:06:28;99505.22;;;10.68;100.00
44457;BME280;30159;49.316;8.558;2022-11-04T04:09:04;99505.22;;;10.68;100.00
44457;BME280;30159;49.316;8.558;2022-11-04T04:11:39;99505.59;;;10.75;100.00
44457;BME280;30159;49.316;8.558;2022-11-04T04:14:14;99514.78;;;10.74;100.00
44457;BME280;30159;49.316;8.558;2022-11-04T04:17:04;99524.47;;;10.75;100.00
44457;BME280;30159;49.316;8.558;2022-11-04T04:19:35;99532.84;;;10.74;100.00
44457;BME280;30159;49.316;8.558;2022-11-04T04:22:06;99461.31;;;10.40;100.00
44457;BME280;30159;49.316;8.558;2022-11-04T04:24:36;99500.00;;;10.72;100.00
44457;BME280;30159;49.316;8.558;2022-11-04T04:27:24;99496.38;;;10.76;100.00
44457;BME280;30159;49.316;8.558;2022-11-04T04:30:00;99461.69;;;10.47;100.00
44457;BME280;30159;49.316;8.558;2022-11-04T04:32:31;99473.66;;;10.55;100.00
44457;BME280;30159;49.316;8.558;2022-11-04T04:35:00;99488.03;;;10.64;100.00
44457;BME280;30159;49.316;8.558;2022-11-04T04:37:45;99468.50;;;10.45;100.00
44457;BME280;30159;49.316;8.558;2022-11-04T04:40:15;99489.66;;;10.51;100.00
44457;BME280;30159;49.316;8.558;2022-11-04T04:43:00;99489.44;;;10.48;100.00
44457;BME280;30159;49.316;8.558;2022-11-04T04:45:42;99481.47;;;10.43;100.00
44457;BME280;30159;49.316;8.558;2022-11-04T04:48:13;99477.88;;;10.47;100.00
44457;BME280;30159;49.316;8.558;2022-11-04T04:50:44;99479.06;;;10.41;100.00
44457;BME280;30159;49.316;8.558;2022-11-04T04:53:12;99424.16;;;9.96;100.00
44457;BME280;30159;49.316;8.558;2022-11-04T04:55:39;99484.56;;;10.36;100.00
44457;BME280;30159;49.316;8.558;2022-11-04T04:58:06;99487.03;;;10.32;100.00
44457;BME280;30159;49.316;8.558;2022-11-04T05:00:32;99489.25;;;10.30;100.00
44457;BME280;30159;49.316;8.558;2022-11-04T05:02:59;99480.69;;;10.28;100.00
44457;BME280;30159;49.316;8.558;2022-11-04T05:05:25;99474.75;;;10.26;100.00
44457;BME280;30159;49.316;8.558;2022-11-04T05:07:53;99473.66;;;10.27;100.00
44457;BME280;30159;49.316;8.558;2022-11-04T05:10:20;99468.56;;;10.26;100.00
44457;BME280;30159;49.316;8.558;2022-11-04T05:12:47;99455.88;;;10.26;100.00
44457;BME280;30159;49.316;8.558;2022-11-04T05:15:31;99462.88;;;10.27;100.00
44457;BME280;30159;49.316;8.558;2022-11-04T05:17:59;99457.06;;;10.20;100.00
44457;BME280;30159;49.316;8.558;2022-11-04T05:20:27;99451.19;;;10.18;100.00
44457;BME280;30159;49.316;8.558;2022-11-04T05:22:55;99454.50;;;10.15;100.00
44457;BME280;30159;49.316;8.558;2022-11-04T05:25:22;99459.78;;;10.20;100.00
44457;BME280;30159;49.316;8.558;2022-11-04T05:27:48;99456.28;;;10.20;100.00
44457;BME280;30159;49.316;8.558;2022-11-04T05:30:15;99457.69;;;10.17;100.00
44457;BME280;30159;49.316;8.558;2022-11-04T05:32:42;99456.00;;;10.21;100.00
44457;BME280;30159;49.316;8.558;2022-11-04T05:35:08;99448.88;;;10.25;100.00
44457;BME280;30159;49.316;8.558;2022-11-04T05:37:35;99460.91;;;10.33;100.00
44457;BME280;30159;49.316;8.558;2022-11-04T05:40:03;99454.69;;;10.32;100.00
44457;BME280;30159;49.316;8.558;2022-11-04T05:42:30;99447.13;;;10.34;100.00
44457;BME280;30159;49.316;8.558;2022-11-04T05:44:56;99449.81;;;10.34;100.00
44457;BME280;30159;49.316;8.558;2022-11-04T05:47:23;99443.91;;;10.32;100.00
44457;BME280;30159;49.316;8.558;2022-11-04T05:49:49;99439.84;;;10.35;100.00
44457;BME280;30159;49.316;8.558;2022-11-04T05:52:16;99451.59;;;10.39;100.00
44457;BME280;30159;49.316;8.558;2022-11-04T05:54:42;99459.28;;;10.32;100.00
44457;BME280;30159;49.316;8.558;2022-11-04T05:57:10;99464.25;;;10.25;100.00
44457;BME280;30159;49.316;8.558;2022-11-04T05:59:37;99470.25;;;10.22;100.00
44457;BME280;30159;49.316;8.558;2022-11-04T06:02:03;99471.06;;;10.22;100.00
44457;BME280;30159;49.316;8.558;2022-11-04T06:04:30;99346.13;;;9.35;100.00
44457;BME280;30159;49.316;8.558;2022-11-04T06:06:56;99472.84;;;10.13;100.00
44457;BME280;30159;49.316;8.558;2022-11-04T06:09:23;99479.53;;;10.16;100.00
44457;BME280;30159;49.316;8.558;2022-11-04T06:12:05;99477.72;;;10.11;100.00
44457;BME280;30159;49.316;8.558;2022-11-04T06:14:33;99488.22;;;10.12;100.00
44457;BME280;30159;49.316;8.558;2022-11-04T06:16:59;99490.63;;;10.14;100.00
44457;BME280;30159;49.316;8.558;2022-11-04T06:19:26;99496.59;;;10.11;100.00
44457;BME280;30159;49.316;8.558;2022-11-04T06:21:52;99497.81;;;10.05;100.00
44457;BME280;30159;49.316;8.558;2022-11-04T06:24:19;99498.28;;;9.93;100.00
44457;BME280;30159;49.316;8.558;2022-11-04T06:26:45;99501.88;;;9.88;100.00
44457;BME280;30159;49.316;8.558;2022-11-04T06:29:12;99480.41;;;9.83;100.00
44457;BME280;30159;49.316;8.558;2022-11-04T06:31:40;99397.97;;;9.41;100.00
44457;BME280;30159;49.316;8.558;2022-11-04T06:34:06;99464.16;;;9.88;100.00
44457;BME280;30159;49.316;8.558;2022-11-04T06:36:33;99427.50;;;9.60;100.00
44457;BME280;30159;49.316;8.558;2022-11-04T06:39:00;99472.16;;;9.94;100.00
44457;BME280;30159;49.316;8.558;2022-11-04T06:41:26;99486.19;;;9.90;100.00
44457;BME280;30159;49.316;8.558;2022-11-04T06:43:53;99481.25;;;9.98;100.00
44457;BME280;30159;49.316;8.558;2022-11-04T06:46:25;99474.84;;;9.94;100.00
44457;BME280;30159;49.316;8.558;2022-11-04T06:48:54;99482.22;;;10.02;100.00
44457;BME280;30159;49.316;8.558;2022-11-04T06:51:21;99360.25;;;9.27;100.00
44457;BME280;30159;49.316;8.558;2022-11-04T06:53:48;99477.16;;;10.00;100.00
44457;BME280;30159;49.316;8.558;2022-11-04T06:56:14;99473.56;;;10.05;100.00
44457;BME280;30159;49.316;8.558;2022-11-04T06:58:41;99501.50;;;10.23;100.00
44457;BME280;30159;49.316;8.558;2022-11-04T07:01:08;99492.50;;;10.27;100.00
44457;BME280;30159;49.316;8.558;2022-11-04T07:03:34;99486.88;;;10.29;100.00
44457;BME280;30159;49.316;8.558;2022-11-04T07:06:07;99488.22;;;10.26;100.00
44457;BME280;30159;49.316;8.558;2022-11-04T07:08:34;99481.44;;;10.15;100.00
44457;BME280;30159;49.316;8.558;2022-11-04T07:11:01;99510.22;;;10.33;100.00
44457;BME280;30159;49.316;8.558;2022-11-04T07:13:28;99510.63;;;10.41;100.00
44457;BME280;30159;49.316;8.558;2022-11-04T07:15:54;99515.13;;;10.45;100.00
44457;BME280;30159;49.316;8.558;2022-11-04T07:18:21;99509.72;;;10.45;100.00
44457;BME280;30159;49.316;8.558;2022-11-04T07:20:48;99510.50;;;10.46;100.00
44457;BME280;30159;49.316;8.558;2022-11-04T07:23:15;99506.13;;;10.50;100.00
44457;BME280;30159;49.316;8.558;2022-11-04T07:25:42;99510.41;;;10.51;100.00
44457;BME280;30159;49.316;8.558;2022-11-04T07:28:08;99481.66;;;10.32;100.00
44457;BME280;30159;49.316;8.558;2022-11-04T07:30:35;99518.81;;;10.63;100.00
44457;BME280;30159;49.316;8.558;2022-11-04T07:33:01;99519.09;;;10.62;100.00
44457;BME280;30159;49.316;8.558;2022-11-04T07:35:28;99508.91;;;10.72;100.00
44457;BME280;30159;49.316;8.558;2022-11-04T07:37:55;99510.88;;;10.81;100.00
44457;BME280;30159;49.316;8.558;2022-11-04T07:40:22;99520.16;;;10.88;100.00
44457;BME280;30159;49.316;8.558;2022-11-04T07:42:49;99505.28;;;10.91;100.00
44457;BME280;30159;49.316;8.558;2022-11-04T07:45:16;99512.34;;;11.01;100.00
44457;BME280;30159;49.316;8.558;2022-11-04T07:47:42;99514.72;;;11.02;100.00
44457;BME280;30159;49.316;8.558;2022-11-04T07:50:09;99517.78;;;11.09;100.00
44457;BME280;30159;49.316;8.558;2022-11-04T07:52:35;99507.50;;;11.11;100.00
44457;BME280;30159;49.316;8.558;2022-11-04T07:55:02;99505.22;;;11.05;100.00
44457;BME280;30159;49.316;8.558;2022-11-04T07:57:30;99501.88;;;11.22;100.00
44457;BME280;30159;49.316;8.558;2022-11-04T07:59:56;99489.53;;;11.29;100.00
44457;BME280;30159;49.316;8.558;2022-11-04T08:02:23;99478.56;;;11.26;100.00
44457;BME280;30159;49.316;8.558;2022-11-04T08:04:50;99492.97;;;11.44;100.00
44457;BME280;30159;49.316;8.558;2022-11-04T08:07:16;99481.94;;;11.54;100.00
44457;BME280;30159;49.316;8.558;2022-11-04T08:09:43;99485.16;;;11.65;100.00
44457;BME280;30159;49.316;8.558;2022-11-04T08:12:09;99488.91;;;11.77;100.00
44457;BME280;30159;49.316;8.558;2022-11-04T08:14:37;99484.16;;;11.83;100.00
44457;BME280;30159;49.316;8.558;2022-11-04T08:17:04;99482.16;;;11.89;100.00
44457;BME280;30159;49.316;8.558;2022-11-04T08:19:30;99489.22;;;11.98;100.00
44457;BME280;30159;49.316;8.558;2022-11-04T08:21:57;99482.06;;;12.02;100.00
44457;BME280;30159;49.316;8.558;2022-11-04T08:24:23;99487.81;;;12.10;100.00
44457;BME280;30159;49.316;8.558;2022-11-04T08:26:50;99470.69;;;12.23;100.00
44457;BME280;30159;49.316;8.558;2022-11-04T08:29:16;99479.34;;;12.42;100.00
44457;BME280;30159;49.316;8.558;2022-11-04T08:31:44;99469.69;;;12.59;100.00
44457;BME280;30159;49.316;8.558;2022-11-04T08:34:11;99471.78;;;12.71;100.00
44457;BME280;30159;49.316;8.558;2022-11-04T08:36:38;99470.81;;;12.75;100.00
44457;BME280;30159;49.316;8.558;2022-11-04T08:39:08;99470.94;;;12.70;100.00
44457;BME280;30159;49.316;8.558;2022-11-04T08:41:35;99460.94;;;12.79;100.00
44457;BME280;30159;49.316;8.558;2022-11-04T08:44:03;99457.47;;;12.88;100.00
44457;BME280;30159;49.316;8.558;2022-11-04T08:46:32;99431.34;;;12.92;100.00
44457;BME280;30159;49.316;8.558;2022-11-04T08:49:01;99461.59;;;13.28;100.00
44457;BME280;30159;49.316;8.558;2022-11-04T08:51:29;99473.22;;;13.46;100.00
44457;BME280;30159;49.316;8.558;2022-11-04T08:53:56;99435.78;;;13.22;100.00
44457;BME280;30159;49.316;8.558;2022-11-04T08:56:24;99475.25;;;13.58;100.00
44457;BME280;30159;49.316;8.558;2022-11-04T08:58:51;99483.91;;;13.43;97.78
44457;BME280;30159;49.316;8.558;2022-11-04T09:01:19;99475.44;;;13.53;97.16
44457;BME280;30159;49.316;8.558;2022-11-04T09:03:47;99474.78;;;13.65;96.54
44457;BME280;30159;49.316;8.558;2022-11-04T09:06:17;99484.16;;;13.85;96.18
44457;BME280;30159;49.316;8.558;2022-11-04T09:08:44;99462.97;;;13.69;92.58
44457;BME280;30159;49.316;8.558;2022-11-04T09:11:12;99483.50;;;13.88;93.43
44457;BME280;30159;49.316;8.558;2022-11-04T09:13:40;99493.03;;;13.94;92.86
44457;BME280;30159;49.316;8.558;2022-11-04T09:16:08;99484.84;;;14.11;92.86
44457;BME280;30159;49.316;8.558;2022-11-04T09:18:36;99479.09;;;14.13;90.87
44457;BME280;30159;49.316;8.558;2022-11-04T09:21:04;99489.38;;;13.99;90.40
44457;BME280;30159;49.316;8.558;2022-11-04T09:23:32;99488.91;;;14.26;90.74
44457;BME280;30159;49.316;8.558;2022-11-04T09:26:03;99495.38;;;14.43;89.35
44457;BME280;30159;49.316;8.558;2022-11-04T09:28:30;99488.22;;;14.00;90.53
44457;BME280;30159;49.316;8.558;2022-11-04T09:30:57;99487.44;;;13.99;91.56
44457;BME280;30159;49.316;8.558;2022-11-04T09:33:24;99469.34;;;14.12;91.93
44457;BME280;30159;49.316;8.558;2022-11-04T09:35:54;99495.72;;;14.41;91.56
44457;BME280;30159;49.316;8.558;2022-11-04T09:38:21;99500.38;;;14.32;91.08
44457;BME280;30159;49.316;8.558;2022-11-04T09:40:49;99506.72;;;14.06;91.33
44457;BME280;30159;49.316;8.558;2022-11-04T09:43:25;99519.72;;;14.22;91.15
44457;BME280;30159;49.316;8.558;2022-11-04T09:45:54;99527.03;;;14.30;91.55
44457;BME280;30159;49.316;8.558;2022-11-04T09:48:25;99525.22;;;14.43;91.89
44457;BME280;30159;49.316;8.558;2022-11-04T09:50:56;99539.72;;;14.56;89.78
44457;BME280;30159;49.316;8.558;2022-11-04T09:53:27;99529.47;;;14.61;89.04
44457;BME280;30159;49.316;8.558;2022-11-04T09:55:59;99532.63;;;14.72;89.47
44457;BME280;30159;49.316;8.558;2022-11-04T09:58:29;99541.25;;;14.65;88.99
44457;BME280;30159;49.316;8.558;2022-11-04T10:01:02;99538.44;;;14.53;88.64
44457;BME280;30159;49.316;8.558;2022-11-04T10:03:46;99538.34;;;14.41;90.89
44457;BME280;30159;49.316;8.558;2022-11-04T10:06:28;99536.72;;;14.01;90.37
44457;BME280;30159;49.316;8.558;2022-11-04T10:09:09;99535.28;;;14.04;90.28
44457;BME280;30159;49.316;8.558;2022-11-04T10:11:46;99529.22;;;13.98;91.75
44457;BME280;30159;49.316;8.558;2022-11-04T10:14:51;99533.97;;;14.10;91.51
44457;BME280;30159;49.316;8.558;2022-11-04T10:17:44;99536.97;;;14.17;91.97
44457;BME280;30159;49.316;8.558;2022-11-04T10:20:26;99409.97;;;13.42;92.87
44457;BME280;30159;49.316;8.558;2022-11-04T10:22:57;99521.63;;;14.30;90.98
44457;BME280;30159;49.316;8.558;2022-11-04T10:25:28;99526.19;;;14.38;91.28
44457;BME280;30159;49.316;8.558;2022-11-04T10:27:57;99514.56;;;14.38;93.05
44457;BME280;30159;49.316;8.558;2022-11-04T10:30:25;99524.72;;;14.49;92.46
44457;BME280;30159;49.316;8.558;2022-11-04T10:33:00;99516.47;;;14.37;92.62
44457;BME280;30159;49.316;8.558;2022-11-04T10:35:31;99519.09;;;14.25;93.40
44457;BME280;30159;49.316;8.558;2022-11-04T10:38:12;99514.28;;;14.30;93.04
44457;BME280;30159;49.316;8.558;2022-11-04T10:40:46;99497.28;;;14.42;91.67
44457;BME280;30159;49.316;8.558;2022-11-04T10:43:17;99514.00;;;14.62;90.65
44457;BME280;30159;49.316;8.558;2022-11-04T10:45:56;99509.13;;;14.76;90.65
44457;BME280;30159;49.316;8.558;2022-11-04T10:48:29;99260.47;;;13.11;88.83
44457;BME280;30159;49.316;8.558;2022-11-04T10:50:58;99496.66;;;14.75;89.34
44457;BME280;30159;49.316;8.558;2022-11-04T10:53:26;99508.53;;;14.91;88.91
44457;BME280;30159;49.316;8.558;2022-11-04T10:55:58;99498.41;;;15.01;86.68
44457;BME280;30159;49.316;8.558;2022-11-04T10:58:31;99501.63;;;15.15;88.49
44457;BME280;30159;49.316;8.558;2022-11-04T11:00:58;99494.47;;;15.31;86.44
44457;BME280;30159;49.316;8.558;2022-11-04T11:03:28;99497.66;;;15.33;86.70
44457;BME280;30159;49.316;8.558;2022-11-04T11:06:13;99496.19;;;15.36;86.32
44457;BME280;30159;49.316;8.558;2022-11-04T11:08:41;99498.31;;;15.30;85.63
44457;BME280;30159;49.316;8.558;2022-11-04T11:11:10;99498.75;;;15.20;86.83
44457;BME280;30159;49.316;8.558;2022-11-04T11:13:39;99508.00;;;15.19;87.86
44457;BME280;30159;49.316;8.558;2022-11-04T11:16:10;99498.06;;;15.23;87.24
44457;BME280;30159;49.316;8.558;2022-11-04T11:18:38;99503.75;;;15.30;87.74
44457;BME280;30159;49.316;8.558;2022-11-04T11:21:09;99510.63;;;15.49;85.88
44457;BME280;30159;49.316;8.558;2022-11-04T11:23:39;99505.88;;;15.46;84.00
44457;BME280;30159;49.316;8.558;2022-11-04T11:26:08;99506.34;;;15.48;84.38
44457;BME280;30159;49.316;8.558;2022-11-04T11:28:35;99487.91;;;15.32;83.16
44457;BME280;30159;49.316;8.558;2022-11-04T11:31:08;99507.69;;;15.54;83.56
44457;BME280;30159;49.316;8.558;2022-11-04T11:33:45;99447.97;;;15.12;82.80
44457;BME280;30159;49.316;8.558;2022-11-04T11:36:16;99497.47;;;15.38;85.84
44457;BME280;30159;49.316;8.558;2022-11-04T11:38:53;99499.00;;;15.27;87.13
44457;BME280;30159;49.316;8.558;2022-11-04T11:41:20;99506.38;;;15.27;86.87
44457;BME280;30159;49.316;8.558;2022-11-04T11:43:54;99499.75;;;15.15;89.91
44457;BME280;30159;49.316;8.558;2022-11-04T11:46:25;99494.91;;;15.00;90.03
44457;BME280;30159;49.316;8.558;2022-11-04T11:48:54;99481.09;;;14.84;91.16
44457;BME280;30159;49.316;8.558;2022-11-04T11:51:27;99492.66;;;15.02;91.76
44457;BME280;30159;49.316;8.558;2022-11-04T11:54:12;99490.03;;;15.06;93.47
44457;BME280;30159;49.316;8.558;2022-11-04T11:56:41;99489.19;;;14.93;94.39
44457;BME280;30159;49.316;8.558;2022-11-04T11:59:16;99483.63;;;14.89;93.28
44457;BME280;30159;49.316;8.558;2022-11-04T12:01:50;99453.81;;;14.60;95.85
44457;BME280;30159;49.316;8.558;2022-11-04T12:04:18;99418.41;;;14.56;96.43
44457;BME280;30159;49.316;8.558;2022-11-04T12:06:51;99463.75;;;14.98;95.18
44457;BME280;30159;49.316;8.558;2022-11-04T12:09:28;99468.41;;;15.18;96.08
44457;BME280;30159;49.316;8.558;2022-11-04T12:12:07;99461.34;;;15.17;96.51
44457;BME280;30159;49.316;8.558;2022-11-04T12:14:47;99456.50;;;15.44;95.33
44457;BME280;30159;49.316;8.558;2022-11-04T12:17:28;99456.53;;;15.68;93.91
44457;BME280;30159;49.316;8.558;2022-11-04T12:20:02;99451.78;;;15.65;92.28
44457;BME280;30159;49.316;8.558;2022-11-04T12:22:39;99452.22;;;15.55;91.60
44457;BME280;30159;49.316;8.558;2022-11-04T12:25:19;99464.03;;;15.38;92.48
44457;BME280;30159;49.316;8.558;2022-11-04T12:27:52;99454.81;;;15.18;93.49
44457;BME280;30159;49.316;8.558;2022-11-04T12:30:24;99460.13;;;14.93;93.73
44457;BME280;30159;49.316;8.558;2022-11-04T12:33:02;99454.31;;;14.83;94.57
44457;BME280;30159;49.316;8.558;2022-11-04T12:35:42;99398.03;;;14.20;93.83
44457;BME280;30159;49.316;8.558;2022-11-04T12:38:29;99465.31;;;14.57;95.79
44457;BME280;30159;49.316;8.558;2022-11-04T12:41:05;99463.75;;;14.56;95.88
44457;BME280;30159;49.316;8.558;2022-11-04T12:43:39;99464.09;;;14.45;94.47
44457;BME280;30159;49.316;8.558;2022-11-04T12:46:12;99455.81;;;14.42;96.86
44457;BME280;30159;49.316;8.558;2022-11-04T12:48:57;99471.09;;;14.46;94.52
44457;BME280;30159;49.316;8.558;2022-11-04T12:51:36;99469.44;;;14.63;93.75
44457;BME280;30159;49.316;8.558;2022-11-04T12:54:23;99475.03;;;14.66;93.64
44457;BME280;30159;49.316;8.558;2022-11-04T12:57:01;99479.53;;;14.83;95.13
44457;BME280;30159;49.316;8.558;2022-11-04T12:59:51;99480.72;;;14.94;95.96
44457;BME280;30159;49.316;8.558;2022-11-04T13:02:25;99441.97;;;14.64;94.63
44457;BME280;30159;49.316;8.558;2022-11-04T13:05:00;99488.41;;;14.92;95.07
44457;BME280;30159;49.316;8.558;2022-11-04T13:07:30;99490.66;;;14.90;93.89
44457;BME280;30159;49.316;8.558;2022-11-04T13:10:04;99491.84;;;15.02;93.46
44457;BME280;30159;49.316;8.558;2022-11-04T13:12:35;99493.94;;;15.17;95.09